KDEH

Decorah Municipal Airport

Decorah, Iowa, USA
METAR KDEH 200715Z AUTO 03005KT 1SM BR OVC002 00/00 A2976 RMK AO2
Observed Flight Rules
Feb-20 @ 07:15 UTC (20 minutes ago) Instrument Flight Rules
Wind Visibility Clouds Conditions
30° at 5 knots 1 miles
  • Overcast at 200' AGL
  • Mist
Temperatures Readings
Current 0°C / 32°F
Dewpoint 0°C / 32°F
Humidity 100%
Altimeter 29.76" Hg
Pressure 1008 hPa
Elevation 353
METAR KDEH 200715Z AUTO 03005KT 1SM BR OVC002 00/00 A2976 RMK AO2
Observed Flight Rules
Feb-20 @ 07:15 UTC
(20 minutes ago)
LIFR
Wind Visibility
30° at 5 knots 1 miles
Clouds
  • Overcast at 200' AGL
Conditions
  • Mist
Temperature Dewpoint
0°C / 32°F 0°C / 32°F
Humidity Altimeter Pressure
100% 29.76" Hg 1008 hPa